CSUN Campus Station - National Weather Service Data Page - PST Time




                Date      RH     Dew  Seasonal     Current   Max Air   Min Air    Wind    Wind    Wind    Gust     Bar    Rain
                Time       %   Point      Rain    Air Temp     Since     Since   Speed    Gust     Dir     Dir   Press   Total
                               Deg F    Inches       Deg F  Midnight  Midnight     MPH     MPH                      mb  Inches
------------------------------------------------------------------------------------------------------------------------------
    08/17/2017 00:00      70    53.7     21.10        63.8      82.6      63.6       0       0       0     290    1014    0.00
    08/17/2017 00:10      71    53.9     21.10        63.6      63.8      63.4       0       1     153     169    1014    0.00
    08/17/2017 00:20      71    53.9     21.10        63.5      63.8      63.3       0       1     152     153    1014    0.00
    08/17/2017 00:30      71    54.2     21.10        63.6      63.9      63.3       1       2     135     147    1014    0.00
    08/17/2017 00:40      71    54.2     21.10        63.8      64.0      63.3       0       2     121     136    1014    0.00
    08/17/2017 00:50      71    54.1     21.10        63.8      64.0      63.3       0       3     105      81    1014    0.00
    08/17/2017 01:00      71    53.9     21.10        63.6      64.0      63.3       0       2     105      94    1014    0.00
    08/17/2017 01:10      72    53.9     21.10        63.3      64.0      63.1       0       0       0      98    1014    0.00
    08/17/2017 01:20      72    53.8     21.10        63.0      64.0      62.7       0       0       0      87    1014    0.00
    08/17/2017 01:30      73    53.8     21.10        62.7      64.0      62.5       0       0       0      89    1014    0.00
    08/17/2017 01:40      73    53.9     21.10        62.6      64.0      62.4       0       0       0     324    1014    0.00
    08/17/2017 01:50      74    53.9     21.10        62.4      64.0      62.2       0       0       0     324    1014    0.00
    08/17/2017 02:00      74    54.2     21.10        62.6      64.0      62.2       0       1      13       8    1014    0.00
    08/17/2017 02:10      73    54.1     21.10        62.8      64.0      62.2       0       2      34      33    1014    0.00
    08/17/2017 02:20      74    53.9     21.10        62.5      64.0      62.2       0       2      39      52    1014    0.00
    08/17/2017 02:30      76    54.2     21.10        62.2      64.0      62.1       0       2      83     103    1014    0.00
    08/17/2017 02:40      77    55.2     21.10        62.5      64.0      62.0       1       2      74      67    1014    0.00
    08/17/2017 02:50      76    55.8     21.10        63.3      64.0      62.0       2       3      77      73    1014    0.00
    08/17/2017 03:00      76    55.9     21.10        63.5      64.0      62.0       1       3      71      63    1014    0.00
    08/17/2017 03:10      76    56.0     21.10        63.5      64.0      62.0       2       3      80      86    1014    0.00
    08/17/2017 03:20      77    55.9     21.10        63.3      64.0      62.0       1       2      66      57    1014    0.00
    08/17/2017 03:30      78    55.9     21.10        63.1      64.0      62.0       2       4      49      54    1014    0.00
    08/17/2017 03:40      78    55.9     21.10        63.0      64.0      62.0       2       3      59      64    1014    0.00
    08/17/2017 03:50      78    55.9     21.10        62.9      64.0      62.0       1       3      68      52    1014    0.00
    08/17/2017 04:00      78    55.8     21.10        62.7      64.0      62.0       1       2      66      78    1014    0.00
    08/17/2017 04:10      78    55.6     21.10        62.6      64.0      62.0       1       3      60      49    1014    0.00
    08/17/2017 04:20      78    55.5     21.10        62.5      64.0      62.0       2       3      44      60    1014    0.00
    08/17/2017 04:30      77    55.4     21.10        62.5      64.0      62.0       2       3      27      39    1014    0.00
    08/17/2017 04:40      77    55.3     21.10        62.5      64.0      62.0       0       2       5      19    1014    0.00
    08/17/2017 04:50      78    55.2     21.10        62.3      64.0      62.0       0       2     349      17    1014    0.00
    08/17/2017 05:00      78    55.1     21.10        62.0      64.0      61.8       0       2     344      36    1014    0.00
    08/17/2017 05:10      79    54.9     21.10        61.8      64.0      61.5       0       2      11      16    1014    0.00
    08/17/2017 05:20      78    54.9     21.10        61.6      64.0      61.5       0       2      29      13    1014    0.00
    08/17/2017 05:30      79    54.8     21.10        61.5      64.0      61.3       0       0       0     311    1014    0.00
    08/17/2017 05:40      79    54.8     21.10        61.4      64.0      61.2       0       0      13      12    1015    0.00
    08/17/2017 05:50      79    55.0     21.10        61.4      64.0      61.2       0       0       0     319    1015    0.00
    08/17/2017 06:00      79    55.2     21.10        61.7      64.0      61.2       0       0      81      81    1015    0.00
    08/17/2017 06:10      78    55.4     21.10        62.2      64.0      61.2       0       1     170     197    1015    0.00
    08/17/2017 06:20      72    55.9     21.10        63.5      64.8      61.2       0       2      67      61    1015    0.00
    08/17/2017 06:30      70    55.3     21.10        65.3      65.7      61.2       0       2     117     124    1015    0.00
    08/17/2017 06:40      69    55.4     21.10        65.6      66.0      61.2       1       4     164     161    1015    0.00
    08/17/2017 06:50      66    55.5     21.10        66.6      67.5      61.2       0       2     156     165    1015    0.00
    08/17/2017 07:00      62    55.7     21.10        68.3      69.1      61.2       0       2     182     180    1015    0.00
    08/17/2017 07:10      63    55.3     21.10        68.3      69.1      61.2       2       3     172     178    1015    0.00
    08/17/2017 07:20      60    55.6     21.10        68.9      69.8      61.2       0       2     174     163    1015    0.00
    08/17/2017 07:30      62    55.4     21.10        69.5      70.0      61.2       2       4     161     136    1015    0.00
    08/17/2017 07:40      61    55.4     21.10        69.0      70.0      61.2       2       5     181     132    1015    0.00
    08/17/2017 07:50      60    55.5     21.10        69.8      70.4      61.2       2       4     161     162    1015    0.00
    08/17/2017 08:00      61    55.4     21.10        69.8      70.4      61.2       2       4     122     149    1015    0.00
    08/17/2017 08:10      58    55.6     21.10        70.2      71.1      61.2       1       5      72      77    1015    0.00
    08/17/2017 08:20      59    55.8     21.10        70.9      71.4      61.2       2       6      82     138    1016    0.00
    08/17/2017 08:30      58    56.1     21.10        71.6      72.3      61.2       3       6     164     160    1016    0.00
    08/17/2017 08:40      60    56.0     21.10        71.5      72.3      61.2       3       6     170     190    1016    0.00
    08/17/2017 08:50      55    56.2     21.10        72.1      72.9      61.2       3       7     132     172    1016    0.00
    08/17/2017 09:00      55    55.9     21.10        73.0      73.4      61.2       2       4     112      68    1016    0.00
    08/17/2017 09:10      52    56.0     21.10        74.0      74.5      61.2       2       4     157     155    1016    0.00
    08/17/2017 09:20      50    55.9     21.10        74.6      75.3      61.2       3       6     120      84    1015    0.00
    08/17/2017 09:30      53    55.6     21.10        74.3      75.3      61.2       4       8     177     164    1015    0.00
    08/17/2017 09:40      49    55.9     21.10        75.0      75.6      61.2       3       7     154     170    1015    0.00
    08/17/2017 09:50      51    56.0     21.10        76.2      76.9      61.2       2       5     162     103    1015    0.00
    08/17/2017 10:00      48    56.5     21.10        76.9      77.2      61.2       4       6     151     156    1015    0.00
    08/17/2017 10:10      47    56.1     21.10        77.2      77.7      61.2       3       7     125      98    1015    0.00
    08/17/2017 10:20      44    55.3     21.10        77.7      78.5      61.2       3       6     115     167    1015    0.00
    08/17/2017 10:30      46    55.5     21.10        78.5      79.2      61.2       3       8     149     147    1015    0.00
    08/17/2017 10:40      42    54.3     21.10        79.3      80.5      61.2       5       8     171     187    1015    0.00
    08/17/2017 10:50      45    54.3     21.10        78.4      80.5      61.2       5       8     173     176    1015    0.00
    08/17/2017 11:00      40    54.4     21.10        79.7      80.5      61.2       3       6      82      49    1015    0.00
    08/17/2017 11:10      41    53.9     21.10        79.7      80.5      61.2       3       7     105      94    1015    0.00
    08/17/2017 11:20      39    52.3     21.10        80.5      81.4      61.2       3       8     161     163    1015    0.00
    08/17/2017 11:30      38    52.9     21.10        81.0      81.8      61.2       3       6     177     184    1015    0.00
    08/17/2017 11:40      35    52.7     21.10        82.3      83.1      61.2       4       9     149     175    1015    0.00
    08/17/2017 11:50      32    51.6     21.10        82.5      83.2      61.2       3       9     178     158    1014    0.00
    08/17/2017 12:00      34    50.8     21.10        82.3      83.2      61.2       4       8     107      82    1014    0.00
    08/17/2017 12:10      33    50.5     21.10        81.9      83.2      61.2       3       8      94      73    1014    0.00
    08/17/2017 12:20      33    50.6     21.10        82.8      83.8      61.2       3       9     100     151    1014    0.00
    08/17/2017 12:30      31    50.4     21.10        83.9      84.6      61.2       5       8     105     136    1014    0.00
    08/17/2017 12:40      31    49.8     21.10        83.5      84.6      61.2       3       7      71     102    1014    0.00
    08/17/2017 12:50      29    49.4     21.10        84.2      84.6      61.2       3       6     106     147    1014    0.00
    08/17/2017 13:00      29    49.0     21.10        84.6      85.3      61.2       3       8     103      91    1014    0.00
    08/17/2017 13:10      28    49.1     21.10        85.0      85.6      61.2       4      10     132     156    1014    0.00
    08/17/2017 13:20      28    48.2     21.10        85.6      86.3      61.2       3       8     108      74    1014    0.00
    08/17/2017 13:30      26    48.3     21.10        85.5      86.3      61.2       5       9     133     123    1013    0.00
    08/17/2017 13:40      27    47.6     21.10        85.4      86.3      61.2       4       8      97      93    1013    0.00
    08/17/2017 13:50      27    46.8     21.10        85.7      86.3      61.2       4       8     102     135    1013    0.00
    08/17/2017 14:00      26    46.8     21.10        86.1      86.8      61.2       4      11     132     137    1013    0.00
    08/17/2017 14:10      26    47.0     21.10        86.8      87.3      61.2       3       7     108      87    1013    0.00
    08/17/2017 14:20      25    47.4     21.10        86.4      87.3      61.2       5       9     104      75    1013    0.00
    08/17/2017 14:30      26    47.0     21.10        86.4      87.3      61.2       5      11     125     161    1013    0.00
    08/17/2017 14:40      24    46.2     21.10        86.9      87.6      61.2       5      10     139     148    1013    0.00
    08/17/2017 14:50      25    45.5     21.10        86.4      87.6      61.2       5       9     124     174    1013    0.00
    08/17/2017 15:00      25    46.4     21.10        86.0      87.6      61.2       4       9     129     140    1013    0.00
    08/17/2017 15:10      25    45.9     21.10        85.6      87.6      61.2       5      10     128      97    1013    0.00
    08/17/2017 15:20      24    44.0     21.10        85.7      87.6      61.2       5      10     140      85    1013    0.00
    08/17/2017 15:30      23    43.2     21.10        85.3      87.6      61.2       4       9     123     129    1013    0.00
    08/17/2017 15:40      22    42.0     21.10        85.1      87.6      61.2       5      10     131     156    1013    0.00
    08/17/2017 15:50      21    41.9     21.10        85.5      87.6      61.2       4       9     123     146    1013    0.00
    08/17/2017 16:00      21    41.0     21.10        85.3      87.6      61.2       5      11      97     110    1012    0.00
    08/17/2017 16:10      22    40.8     21.10        84.7      87.6      61.2       5       9      93      94    1012    0.00
    08/17/2017 16:20      22    41.7     21.10        84.2      87.6      61.2       4      10     110      90    1012    0.00
    08/17/2017 16:30      22    41.1     21.10        83.8      87.6      61.2       5       9      90      92    1012    0.00
    08/17/2017 16:40      22    42.0     21.10        83.9      87.6      61.2       3       7     117     146    1013    0.00
    08/17/2017 16:50      22    41.7     21.10        83.4      87.6      61.2       5       8      85      83    1013    0.00
    08/17/2017 17:00      23    40.9     21.10        83.1      87.6      61.2       4       8     105     109    1012    0.00
    08/17/2017 17:10      21    39.9     21.10        83.1      87.6      61.2       5       9      98     104    1013    0.00
    08/17/2017 17:20      23    40.7     21.10        82.9      87.6      61.2       3       8     112      62    1013    0.00
    08/17/2017 17:30      25    41.1     21.10        82.2      87.6      61.2       3       8     103     114    1013    0.00
    08/17/2017 17:40      26    42.9     21.10        81.4      87.6      61.2       3       7      95      93    1013    0.00
    08/17/2017 17:50      27    42.5     21.10        80.7      87.6      61.2       3       9      98      91    1013    0.00
    08/17/2017 18:00      25    42.9     21.10        80.0      87.6      61.2       3       7      98      94    1013    0.00
    08/17/2017 18:10      28    41.1     21.10        79.1      87.6      61.2       4       7      86      86    1013    0.00
    08/17/2017 18:20      27    40.9     21.10        78.4      87.6      61.2       4       8      88      92    1013    0.00
    08/17/2017 18:30      31    43.1     21.10        77.7      87.6      61.2       3       7      87      69    1013    0.00
    08/17/2017 18:40      33    44.9     21.10        77.0      87.6      61.2       3       7      81      98    1013    0.00
    08/17/2017 18:50      36    46.4     21.10        76.2      87.6      61.2       4       6      80      73    1013    0.00
    08/17/2017 19:00      37    47.3     21.10        75.5      87.6      61.2       3       6      72      78    1014    0.00
    08/17/2017 19:10      39    47.4     21.10        75.0      87.6      61.2       3       6      72      75    1014    0.00
    08/17/2017 19:20      40    47.8     21.10        74.3      87.6      61.2       4       7      73      78    1014    0.00
    08/17/2017 19:30      44    49.7     21.10        73.7      87.6      61.2       3       6      61      14    1014    0.00
    08/17/2017 19:40      45    50.6     21.10        73.3      87.6      61.2       3       6      71      67    1014    0.00
    08/17/2017 19:50      46    51.0     21.10        73.1      87.6      61.2       2       4      71      63    1014    0.00
    08/17/2017 20:00      47    51.3     21.10        72.8      87.6      61.2       2       4      74      82    1014    0.00
    08/17/2017 20:10      48    51.5     21.10        72.5      87.6      61.2       2       3      66      68    1014    0.00
    08/17/2017 20:20      49    51.7     21.10        72.4      87.6      61.2       2       4      74      76    1014    0.00
    08/17/2017 20:30      49    51.9     21.10        72.2      87.6      61.2       1       3      79      86    1014    0.00
    08/17/2017 20:40      50    52.2     21.10        72.0      87.6      61.2       2       3      78      78    1014    0.00
    08/17/2017 20:50      50    52.4     21.10        72.0      87.6      61.2       1       4      88     106    1014    0.00
    08/17/2017 21:00      52    52.6     21.10        71.5      87.6      61.2       1       3     130      94    1014    0.00
    08/17/2017 21:10      51    52.4     21.10        71.2      87.6      61.2       2       3     116      90    1014    0.00
    08/17/2017 21:20      51    52.2     21.10        71.2      87.6      61.2       1       3      96      82    1014    0.00
    08/17/2017 21:30      52    52.4     21.10        71.1      87.6      61.2       1       2      63      70    1014    0.00
    08/17/2017 21:40      53    52.6     21.10        71.0      87.6      61.2       0       3      70      51    1014    0.00
    08/17/2017 21:50      53    52.9     21.10        70.7      87.6      61.2       1       3      90      69    1014    0.00
    08/17/2017 22:00      56    53.3     21.10        70.4      87.6      61.2       0       2      70      48    1014    0.00
    08/17/2017 22:10      56    53.5     21.10        69.9      87.6      61.2       0       2      76      69    1014    0.00
    08/17/2017 22:20      59    54.3     21.10        69.5      87.6      61.2       0       1     262     261    1014    0.00
    08/17/2017 22:30      59    54.0     21.10        69.0      87.6      61.2       0       2     162     145    1014    0.00
    08/17/2017 22:40      60    53.9     21.10        68.6      87.6      61.2       1       2     156     148    1014    0.00
    08/17/2017 22:50      60    54.3     21.10        68.7      87.6      61.2       0       3     102      98    1014    0.00
    08/17/2017 23:00      60    54.1     21.10        68.9      87.6      61.2       0       3     115     104    1014    0.00
    08/17/2017 23:10      62    54.7     21.10        68.5      87.6      61.2       0       2     136     139    1014    0.00
    08/17/2017 23:20      63    54.9     21.10        68.1      87.6      61.2       0       1     130     157    1014    0.00
    08/17/2017 23:30      61    54.6     21.10        68.2      87.6      61.2       1       3     102     102    1014    0.00
    08/17/2017 23:40      63    54.7     21.10        68.2      87.6      61.2       0       2     135      66    1014    0.00
    08/17/2017 23:50      64    54.7     21.10        67.7      87.6      61.2       0       0      50      58    1014    0.00
    08/18/2017 00:00      65    54.8     21.10        67.3      87.6      61.2       0       2     152     165    1014    0.00
    08/18/2017 00:10      65    54.8     21.10        67.0      67.3      66.8       1       2     155     142    1014    0.00
    08/18/2017 00:20      66    55.1     21.10        66.9      67.3      66.7       0       2     172     169    1014    0.00
    08/18/2017 00:30      67    55.2     21.10        66.7      67.3      66.5       1       2     154     155    1014    0.00
    08/18/2017 00:40      67    55.4     21.10        66.5      67.3      66.3       1       2     153     151    1014    0.00
    08/18/2017 00:50      67    55.4     21.10        66.5      67.3      66.3       1       2     133     143    1014    0.00
    08/18/2017 01:00      67    55.5     21.10        66.6      67.3      66.3       0       3     134     139    1014    0.00
    08/18/2017 01:10      69    55.4     21.10        66.4      67.3      66.1       0       1     127     110    1014    0.00
    08/18/2017 01:20      70    55.8     21.10        66.0      67.3      65.8       0       1     136     137    1014    0.00
    08/18/2017 01:30      71    56.2     21.10        65.9      67.3      65.7       0       2      75      76    1013    0.00
    08/18/2017 01:40      71    56.5     21.10        66.2      67.3      65.7       2       3      69      72    1013    0.00
    08/18/2017 01:50      71    56.6     21.10        66.2      67.3      65.7       2       3      78      84    1013    0.00
    08/18/2017 02:00      72    56.7     21.10        66.1      67.3      65.7       2       3      80      68    1013    0.00
    08/18/2017 02:10      73    56.7     21.10        65.9      67.3      65.7       1       2      76      83    1013    0.00
    08/18/2017 02:20      73    56.8     21.10        65.8      67.3      65.6       2       3      62      81    1014    0.00
    08/18/2017 02:30      74    56.9     21.10        65.7      67.3      65.4       2       3      72      24    1014    0.00
    08/18/2017 02:40      74    56.9     21.10        65.4      67.3      65.2       2       4      72      51    1014    0.00
    08/18/2017 02:50      74    56.8     21.10        65.2      67.3      65.0       2       3      71      76    1014    0.00
    08/18/2017 03:00      75    56.8     21.10        65.0      67.3      64.7       2       3      79      79    1014    0.00
    08/18/2017 03:10      75    56.7     21.10        64.8      67.3      64.6       2       3      72      71    1014    0.00
    08/18/2017 03:20      75    56.6     21.10        64.6      67.3      64.3       2       3      76      70    1014    0.00
    08/18/2017 03:30      75    56.4     21.10        64.4      67.3      64.2       1       3      74      71    1014    0.00
    08/18/2017 03:40      76    56.4     21.10        64.2      67.3      64.0       2       3      56      77    1014    0.00
    08/18/2017 03:50      76    56.3     21.10        64.0      67.3      63.8       1       3      62      80    1014    0.00
    08/18/2017 04:00      76    56.3     21.10        63.9      67.3      63.7       2       4      62      53    1014    0.00
    08/18/2017 04:10      77    56.2     21.10        63.7      67.3      63.6       0       2      64      69    1014    0.00
    08/18/2017 04:20      77    56.3     21.10        63.6      67.3      63.4       1       2      76      70    1014    0.00
    08/18/2017 04:30      77    56.2     21.10        63.5      67.3      63.3       2       2      81      96    1014    0.00
    08/18/2017 04:40      77    56.1     21.10        63.4      67.3      63.2       0       2      87      86    1014    0.00
    08/18/2017 04:50      78    55.9     21.10        63.0      67.3      62.7       0       0     122     120    1014    0.00
    08/18/2017 05:00      79    55.8     21.10        62.6      67.3      62.3       0       0     183     183    1014    0.00
    08/18/2017 05:10      80    55.9     21.10        62.4      67.3      62.2       0       1      33      38    1014    0.00
    08/18/2017 05:20      80    56.1     21.10        62.4      67.3      62.2       0       1      54      72    1014    0.00
    08/18/2017 05:30      80    55.9     21.10        62.2      67.3      62.0       0       0     115     115    1014    0.00
    08/18/2017 05:40      80    55.8     21.10        62.1      67.3      61.9       0       0     118     118    1014    0.00
    08/18/2017 05:50      81    56.3     21.10        62.3      67.3      61.9       0       1      55      44    1015    0.00
    08/18/2017 06:00      79    56.8     21.10        63.0      67.3      61.9       1       2      87      83    1015    0.00
    08/18/2017 06:10      77    56.8     21.10        63.6      67.3      61.9       1       3      73      92    1015    0.00
    08/18/2017 06:20      74    56.8     21.10        64.6      67.3      61.9       2       4      75      69    1015    0.00
    08/18/2017 06:30      70    56.9     21.10        66.0      67.3      61.9       1       4     118      95    1015    0.00
    08/18/2017 06:40      68    56.9     21.10        67.1      67.7      61.9       2       5     156     144    1015    0.00
    08/18/2017 06:50      67    56.5     21.10        67.4      67.7      61.9       2       5     130      86    1015    0.00
    08/18/2017 07:00      65    56.1     21.10        67.9      68.4      61.9       2       4     114      85    1015    0.00
    08/18/2017 07:10      64    56.1     21.10        68.4      69.0      61.9       2       4      71      94    1015    0.00
    08/18/2017 07:20      63    56.1     21.10        68.7      69.2      61.9       1       4      79      29    1015    0.00
    08/18/2017 07:30      62    56.2     21.10        69.3      69.7      61.9       2       4     115      94    1015    0.00
    08/18/2017 07:40      63    56.4     21.10        69.9      70.2      61.9       2       4     141     169    1015    0.00
    08/18/2017 07:50      61    56.5     21.10        70.0      70.7      61.9       2       4     153     173    1015    0.00
    08/18/2017 08:00      61    56.4     21.10        70.7      71.1      61.9       2       4     153     184    1015    0.00
    08/18/2017 08:10      59    56.6     21.10        71.3      72.3      61.9       2       5     141     146    1015    0.00
    08/18/2017 08:20      57    56.0     21.10        71.8      72.3      61.9       2       6     202     168    1015    0.00
    08/18/2017 08:30      53    55.8     21.10        73.0      73.5      61.9       0       3     110      56    1015    0.00
    08/18/2017 08:40      51    55.3     21.10        73.7      74.1      61.9       2       4      55      69    1015    0.00
    08/18/2017 08:50      53    55.7     21.10        73.8      74.3      61.9       3       6     179     176    1015    0.00
    08/18/2017 09:00      54    56.0     21.10        73.8      74.4      61.9       3       6     164     170    1015    0.00
    08/18/2017 09:10      52    55.7     21.10        74.7      75.6      61.9       3       7     143     143    1015    0.00
    08/18/2017 09:20      47    54.9     21.10        75.8      76.8      61.9       2       6     144     175    1015    0.00
    08/18/2017 09:30      46    54.9     21.10        76.9      77.8      61.9       3       6     160     161    1015    0.00
    08/18/2017 09:40      47    54.4     21.10        76.4      77.8      61.9       2       5     215     168    1015    0.00
    08/18/2017 09:50      42    53.0     21.10        77.1      77.8      61.9       2       5     100      89    1015    0.00
    08/18/2017 10:00      39    52.9     21.10        78.9      79.6      61.9       2       6     158     157    1015    0.00
    08/18/2017 10:10      40    52.5     21.10        79.3      79.7      61.9       2       4     156     139    1015    0.00
    08/18/2017 10:20      38    53.2     21.10        80.5      81.9      61.9       2       5     153     167    1015    0.00
    08/18/2017 10:30      39    52.4     21.10        81.2      82.1      61.9       3       6     103      93    1015    0.00
    08/18/2017 10:40      37    52.5     21.10        80.9      82.1      61.9       2       6     136      65    1015    0.00
    08/18/2017 10:50      35    51.9     21.10        81.7      82.1      61.9       2       5     115     115    1014    0.00
    08/18/2017 11:00      36    52.7     21.10        82.0      82.4      61.9       4       9     105     163    1014    0.00
    08/18/2017 11:10      39    53.5     21.10        81.8      82.4      61.9       4       8     148     158    1014    0.00
    08/18/2017 11:20      35    52.2     21.10        82.9      83.3      61.9       2       7     138     122    1014    0.00
    08/18/2017 11:30      35    52.5     21.10        83.2      84.1      61.9       3       7     110     171    1014    0.00
    08/18/2017 11:40      34    52.8     21.10        84.3      84.9      61.9       4       7     129     115    1014    0.00
    08/18/2017 11:50      33    52.6     21.10        84.2      84.9      61.9       3       7     109     178    1014    0.00
    08/18/2017 12:00      33    52.2     21.10        84.3      84.9      61.9       3       8     155     151    1014    0.00
    08/18/2017 12:10      31    52.6     21.10        85.5      86.4      61.9       2       5     195     141    1014    0.00
    08/18/2017 12:20      32    52.5     21.10        85.7      86.4      61.9       2       6     152     173    1014    0.00
    08/18/2017 12:30      33    53.1     21.10        86.0      87.6      61.9       2       5     177     190    1014    0.00
    08/18/2017 12:40      32    53.7     21.10        87.2      87.6      61.9       4       9     115     139    1013    0.00
    08/18/2017 12:50      31    53.2     21.10        86.6      87.6      61.9       3       8     146     137    1013    0.00
    08/18/2017 13:00      32    53.8     21.10        87.2      88.4      61.9       3      10     123     146    1013    0.00
    08/18/2017 13:10      33    54.6     21.10        87.7      88.5      61.9       5      11     153     152    1013    0.00
    08/18/2017 13:20      32    55.0     21.10        88.1      89.1      61.9       4       9     138     126    1013    0.00
    08/18/2017 13:30      32    54.8     21.10        88.0      89.1      61.9       4       7     121     102    1013    0.00
    08/18/2017 13:40      33    54.8     21.10        87.9      89.1      61.9       4       9     108     139    1013    0.00
    08/18/2017 13:50      33    54.8     21.10        87.8      89.1      61.9       5      10     114      97    1013    0.00
    08/18/2017 14:00      33    54.8     21.10        87.2      89.1      61.9       5      12     122     150    1013    0.00
    08/18/2017 14:10      34    54.7     21.10        86.2      89.1      61.9       5      11     125     138    1013    0.00
    08/18/2017 14:20      35    55.0     21.10        85.7      89.1      61.9       6      11     124     128    1013    0.00
    08/18/2017 14:30      34    54.6     21.10        86.0      89.1      61.9       5      12     119     100    1013    0.00
    08/18/2017 14:40      34    53.9     21.10        85.3      89.1      61.9       5      11     101     117    1012    0.00
    08/18/2017 14:50      34    54.0     21.10        85.5      89.1      61.9       5      10     101      93    1012    0.00
    08/18/2017 15:00      34    54.3     21.10        85.9      89.1      61.9       5      11      93      88    1012    0.00
    08/18/2017 15:10      35    54.5     21.10        85.9      89.1      61.9       4       9     123     144    1012    0.00
    08/18/2017 15:20      33    54.4     21.10        85.8      89.1      61.9       4      10     107      73    1012    0.00
    08/18/2017 15:30      35    53.7     21.10        85.2      89.1      61.9       6      13      90      89    1012    0.00
    08/18/2017 15:40      34    53.4     21.10        84.8      89.1      61.9       5       9     112      88    1012    0.00
    08/18/2017 15:50      34    53.3     21.10        85.1      89.1      61.9       4      10     108      76    1012    0.00
    08/18/2017 16:00      34    52.9     21.10        84.3      89.1      61.9       6      11      83     103    1012    0.00
    08/18/2017 16:10      35    53.2     21.10        84.1      89.1      61.9       5      10      98      78    1012    0.00
    08/18/2017 16:20      36    53.4     21.10        83.7      89.1      61.9       5      10     104      96    1012    0.00
    08/18/2017 16:30      36    53.4     21.10        83.5      89.1      61.9       4       9     123     151    1012    0.00
    08/18/2017 16:40      37    53.8     21.10        82.8      89.1      61.9       4      10     112      95    1012    0.00
    08/18/2017 16:50      37    54.4     21.10        82.4      89.1      61.9       4       7      94      94    1012    0.00
    08/18/2017 17:00      39    54.4     21.10        82.2      89.1      61.9       5       8      81      62    1012    0.00
    08/18/2017 17:10      39    54.4     21.10        81.7      89.1      61.9       4       8      89      74    1012    0.00
    08/18/2017 17:20      40    54.4     21.10        81.2      89.1      61.9       5       9      73      66    1012    0.00
    08/18/2017 17:30      42    54.6     21.10        80.6      89.1      61.9       5       9      79      61    1012    0.00
    08/18/2017 17:40      43    55.1     21.10        79.9      89.1      61.9       4       8      79      87    1012    0.00
    08/18/2017 17:50      44    55.3     21.10        79.2      89.1      61.9       5       8      82      70    1012    0.00
    08/18/2017 18:00      45    55.3     21.10        78.4      89.1      61.9       4       9      94      80    1012    0.00
    08/18/2017 18:10      47    55.5     21.10        78.0      89.1      61.9       3       7      88      80    1012    0.00
    08/18/2017 18:20      47    55.5     21.10        77.4      89.1      61.9       3       6      70      80    1012    0.00
    08/18/2017 18:30      48    55.4     21.10        76.7      89.1      61.9       3       6      72      71    1012    0.00
    08/18/2017 18:40      49    55.2     21.10        75.9      89.1      61.9       4       7      83      66    1012    0.00
    08/18/2017 18:50      50    55.4     21.10        75.4      89.1      61.9       3       6      86      86    1012    0.00
    08/18/2017 19:00      51    55.5     21.10        75.1      89.1      61.9       2       4      85      79    1012    0.00
    08/18/2017 19:10      51    55.5     21.10        74.9      89.1      61.9       3       4      95      72    1012    0.00
    08/18/2017 19:20      51    55.5     21.10        74.6      89.1      61.9       2       5      91      69    1012    0.00
    08/18/2017 19:30      52    55.5     21.10        74.4      89.1      61.9       3       5      91      73    1013    0.00
    08/18/2017 19:40      53    55.5     21.10        74.2      89.1      61.9       2       4      91      89    1013    0.00
    08/18/2017 19:50      53    55.6     21.10        74.0      89.1      61.9       2       5      70      64    1013    0.00
    08/18/2017 20:00      53    55.5     21.10        73.7      89.1      61.9       2       4      92      76    1013    0.00
    08/18/2017 20:10      54    55.8     21.10        73.5      89.1      61.9       2       4     119      84    1013    0.00
    08/18/2017 20:20      55    55.8     21.10        73.1      89.1      61.9       2       5     108      97    1013    0.00
    08/18/2017 20:30      57    56.1     21.10        72.7      89.1      61.9       2       4     118      94    1013    0.00
    08/18/2017 20:40      59    56.4     21.10        72.2      89.1      61.9       2       4     126      67    1013    0.00
    08/18/2017 20:50      60    56.7     21.10        71.6      89.1      61.9       2       5     115     107    1013    0.00
    08/18/2017 21:00      61    56.6     21.10        71.1      89.1      61.9       2       4     106      92    1013    0.00
    08/18/2017 21:10      62    56.6     21.10        70.6      89.1      61.9       2       4     118     139    1013    0.00
    08/18/2017 21:20      63    56.7     21.10        70.1      89.1      61.9       1       3     123      89    1013    0.00
    08/18/2017 21:30      64    56.9     21.10        69.8      89.1      61.9       1       3     124     164    1013    0.00
    08/18/2017 21:40      65    57.0     21.10        69.5      89.1      61.9       2       4     100     105    1013    0.00
    08/18/2017 21:50      66    57.1     21.10        69.2      89.1      61.9       1       2     129     148    1013    0.00
    08/18/2017 22:00      66    57.2     21.10        69.0      89.1      61.9       0       3     119      86    1013    0.00
    08/18/2017 22:10      67    57.3     21.10        68.8      89.1      61.9       1       3     124     132    1013    0.00
    08/18/2017 22:20      68    57.5     21.10        68.7      89.1      61.9       1       3     116     126    1013    0.00
    08/18/2017 22:30      68    57.5     21.10        68.4      89.1      61.9       1       3     130     119    1013    0.00
    08/18/2017 22:40      70    57.6     21.10        68.0      89.1      61.9       1       3     104      86    1013    0.00
    08/18/2017 22:50      70    57.6     21.10        68.0      89.1      61.9       1       3     111     128    1013    0.00
    08/18/2017 23:00      70    57.7     21.10        67.8      89.1      61.9       0       3      88      99    1013    0.00
    08/18/2017 23:10      70    57.7     21.10        67.8      89.1      61.9       2       4      88      89    1013    0.00
    08/18/2017 23:20      70    57.5     21.10        67.7      89.1      61.9       2       4      88      80    1013    0.00
    08/18/2017 23:30      70    57.4     21.10        67.5      89.1      61.9       1       3      91      93    1013    0.00
    08/18/2017 23:40      71    57.5     21.10        67.3      89.1      61.9       2       3      89      86    1013    0.00
    08/18/2017 23:50      71    57.6     21.10        67.3      89.1      61.9       2       4      83      97    1013    0.00
    08/19/2017 00:00      72    57.6     21.10        67.1      89.1      61.9       2       3      84      61    1013    0.00
    08/19/2017 00:10      72    57.7     21.10        67.0      67.1      66.8       2       3      77      54    1013    0.00
    08/19/2017 00:20      73    57.6     21.10        66.8      67.1      66.5       1       3      88      63    1013    0.00
    08/19/2017 00:30      73    57.7     21.10        66.6      67.1      66.3       2       4      87      91    1013    0.00
    08/19/2017 00:40      74    57.7     21.10        66.3      67.1      66.0       2       4      83      95    1013    0.00
    08/19/2017 00:50      75    57.8     21.10        66.0      67.1      65.8       3       4      89      85    1013    0.00
    08/19/2017 01:00      76    57.8     21.10        65.8      67.1      65.6       2       4     100      96    1013    0.00
    08/19/2017 01:10      76    57.8     21.10        65.6      67.1      65.4       2       4     109     100    1013    0.00
    08/19/2017 01:20      77    57.8     21.10        65.4      67.1      65.1       2       4      90      82    1013    0.00
    08/19/2017 01:30      77    57.8     21.10        65.2      67.1      65.0       2       3      91     117    1013    0.00
    08/19/2017 01:40      78    57.8     21.10        65.0      67.1      64.8       1       3      82      77    1013    0.00
    08/19/2017 01:50      78    57.8     21.10        64.9      67.1      64.7       2       3      79      70    1013    0.00
    08/19/2017 02:00      78    57.8     21.10        64.7      67.1      64.5       2       3      82      69    1013    0.00
    08/19/2017 02:10      79    57.8     21.10        64.6      67.1      64.4       1       3      88      56    1013    0.00
    08/19/2017 02:20      79    57.6     21.10        64.3      67.1      64.1       1       2     141     126    1013    0.00
    08/19/2017 02:30      80    57.6     21.10        64.1      67.1      63.9       1       3     146     159    1013    0.00
    08/19/2017 02:40      80    57.7     21.10        64.0      67.1      63.8       0       2     102      94    1013    0.00
    08/19/2017 02:50      81    57.7     21.10        63.9      67.1      63.8       2       3      79      98    1013    0.00
    08/19/2017 03:00      81    57.7     21.10        63.8      67.1      63.5       2       3      79      87    1013    0.00
    08/19/2017 03:10      81    57.8     21.10        63.7      67.1      63.5       2       3      76      75    1013    0.00
    08/19/2017 03:20      81    57.7     21.10        63.6      67.1      63.4       2       3      92      85    1013    0.00
    08/19/2017 03:30      81    57.5     21.10        63.4      67.1      63.0       1       2     156     144    1013    0.00
    08/19/2017 03:40      82    57.2     21.10        62.9      67.1      62.7       2       3     150     151    1013    0.00
    08/19/2017 03:50      83    57.3     21.10        62.7      67.1      62.4       1       2     151     148    1013    0.00
    08/19/2017 04:00      83    57.6     21.10        62.7      67.1      62.4       1       4     111      80    1013    0.00
    08/19/2017 04:10      83    57.6     21.10        62.7      67.1      62.4       2       4      91      99    1013    0.00
    08/19/2017 04:20      84    57.5     21.10        62.6      67.1      62.4       0       3      79      65    1013    0.00
    08/19/2017 04:30      84    57.5     21.10        62.5      67.1      62.4       1       3      80      71    1013    0.00
    08/19/2017 04:40      84    57.5     21.10        62.5      67.1      62.3       1       3      90      92    1013    0.00
    08/19/2017 04:50      84    57.4     21.10        62.4      67.1      62.1       0       3     125     162    1013    0.00
    08/19/2017 05:00      84    57.2     21.10        62.1      67.1      62.0       0       3     107      82    1013    0.00
    08/19/2017 05:10      85    57.3     21.10        62.1      67.1      61.8       0       3      99      89    1013    0.00
    08/19/2017 05:20      85    57.4     21.10        62.1      67.1      61.8       1       3      85      83    1013    0.00
    08/19/2017 05:30      85    57.4     21.10        62.1      67.1      61.8       1       2      83      70    1013    0.00
    08/19/2017 05:40      85    57.3     21.10        62.0      67.1      61.8       2       3     122     139    1013    0.00
    08/19/2017 05:50      85    57.5     21.10        62.1      67.1      61.8       1       3     129     143    1013    0.00
    08/19/2017 06:00      85    57.6     21.10        62.2      67.1      61.8       1       3     134     162    1014    0.00
    08/19/2017 06:10      85    57.8     21.10        62.5      67.1      61.8       2       4     143     141    1014    0.00
    08/19/2017 06:20      84    57.9     21.10        62.6      67.1      61.8       2       4     120     128    1014    0.00
    08/19/2017 06:30      84    57.9     21.10        62.7      67.1      61.8       2       3     153     172    1014    0.00
    08/19/2017 06:40      84    58.1     21.10        62.9      67.1      61.8       2       5      76      68    1014    0.00
    08/19/2017 06:50      83    58.2     21.10        63.2      67.1      61.8       2       5     104      82    1014    0.00
    08/19/2017 07:00      83    58.0     21.10        63.2      67.1      61.8       2       4     105      98    1014    0.00
    08/19/2017 07:10      82    58.1     21.10        63.5      67.1      61.8       1       4      95      78    1014    0.00
    08/19/2017 07:20      82    58.0     21.10        63.6      67.1      61.8       2       5      28      84    1014    0.00
    08/19/2017 07:30      80    58.1     21.10        63.9      67.1      61.8       2       4     138     161    1014    0.00
    08/19/2017 07:40      79    58.0     21.10        64.4      67.1      61.8       0       2     149     143    1014    0.00
    08/19/2017 07:50      78    58.0     21.10        64.9      67.1      61.8       2       5     148     170    1014    0.00
    08/19/2017 08:00      76    57.9     21.10        65.5      67.1      61.8       1       4     134     154    1014    0.00
    08/19/2017 08:10      74    57.8     21.10        66.0      67.1      61.8       2       5     110      95    1014    0.00
    08/19/2017 08:20      70    57.9     21.10        66.8      67.8      61.8       2       7      80      59    1014    0.00
    08/19/2017 08:30      69    57.7     21.10        67.8      68.6      61.8       3       5      64      73    1014    0.00
    08/19/2017 08:40      68    57.5     21.10        68.6      69.1      61.8       2       5     182     177    1014    0.00
    08/19/2017 08:50      65    57.6     21.10        69.2      69.8      61.8       2       6     167     142    1014    0.00
    08/19/2017 09:00      63    57.6     21.10        70.1      71.0      61.8       2       6     163     138    1014    0.00
    08/19/2017 09:10      61    57.1     21.10        71.2      71.5      61.8       3       6     120      83    1014    0.00
    08/19/2017 09:20      59    57.1     21.10        71.5      72.7      61.8       3       6     128     161    1014    0.00
    08/19/2017 09:30      57    56.8     21.10        72.5      73.1      61.8       3       5     115     181    1014    0.00
    08/19/2017 09:40      57    57.0     21.10        73.1      73.8      61.8       2       8     128     151    1014    0.00
    08/19/2017 09:50      54    56.6     21.10        73.8      74.4      61.8       3       8     151     148    1014    0.00
    08/19/2017 10:00      53    56.6     21.10        74.3      75.3      61.8       1       4       2     107    1014    0.00
    08/19/2017 10:10      49    56.0     21.10        75.8      76.6      61.8       2       6     188     168    1014    0.00
    08/19/2017 10:20      48    54.6     21.10        76.1      76.6      61.8       3       6      84     101    1014    0.00
    08/19/2017 10:30      42    53.5     21.10        76.2      76.7      61.8       3       6     134     195    1013    0.00
    08/19/2017 10:40      41    52.3     21.10        77.7      78.6      61.8       3       6     116      95    1013    0.00
    08/19/2017 10:50      39    52.8     21.10        78.6      79.0      61.8       2       6     160     161    1013    0.00
    08/19/2017 11:00      40    52.1     21.10        79.1      79.4      61.8       2       5      72      62    1013    0.00
    08/19/2017 11:10      36    52.0     21.10        79.4      80.0      61.8       3       8      76      94    1013    0.00
    08/19/2017 11:20      36    50.3     21.10        80.5      80.9      61.8       3       8     167     158    1013    0.00
    08/19/2017 11:30      33    50.4     21.10        81.0      82.3      61.8       2       6     217     159    1013    0.00
    08/19/2017 11:40      31    50.0     21.10        82.2      83.0      61.8       2       6     128     129    1013    0.00
    08/19/2017 11:50      31    48.7     21.10        82.9      83.3      61.8       1       4     329     254    1013    0.00
    08/19/2017 12:00      32    51.3     21.10        84.1      85.1      61.8       3       9     126     167    1013    0.00
    08/19/2017 12:10      30    50.4     21.10        84.4      85.2      61.8       3       7     131     165    1012    0.00
    08/19/2017 12:20      32    50.1     21.10        84.3      85.2      61.8       3       7      69      86    1012    0.00
    08/19/2017 12:30      30    50.9     21.10        84.5      85.5      61.8       3       6     117      82    1012    0.00
    08/19/2017 12:40      30    50.2     21.10        85.5      86.1      61.8       2       7     122     153    1012    0.00
    08/19/2017 12:50      30    50.8     21.10        85.9      86.5      61.8       4       8      82      86    1012    0.00
    08/19/2017 13:00      29    50.9     21.10        85.4      86.5      61.8       4      11     117      99    1012    0.00
    08/19/2017 13:10      32    51.4     21.10        85.5      86.5      61.8       4       9     104     106    1012    0.00
    08/19/2017 13:20      32    52.4     21.10        86.0      86.5      61.8       5      10     129     133    1012    0.00
    08/19/2017 13:30      32    52.5     21.10        86.1      86.7      61.8       5       9     105     118    1012    0.00
    08/19/2017 13:40      33    52.5     21.10        85.1      86.7      61.8       4       8     125     146    1011    0.00
    08/19/2017 13:50      32    51.7     21.10        85.0      86.7      61.8       5      10     118      78    1011    0.00
    08/19/2017 14:00      31    51.4     21.10        85.9      86.7      61.8       4       8     131     149    1011    0.00
    08/19/2017 14:10      31    51.9     21.10        86.6      87.1      61.8       4      10     149     165    1011    0.00
    08/19/2017 14:20      30    51.5     21.10        87.0      87.6      61.8       4      10     133     156    1011    0.00
    08/19/2017 14:30      29    51.1     21.10        86.7      87.6      61.8       4       8     114      93    1011    0.00
    08/19/2017 14:40      30    50.5     21.10        85.8      87.6      61.8       5       8      98      91    1011    0.00
    08/19/2017 14:50      28    50.8     21.10        86.7      87.6      61.8       4       9     136     132    1011    0.00
    08/19/2017 15:00      28    50.0     21.10        86.6      87.6      61.8       4      11     101      94    1011    0.00
    08/19/2017 15:10      29    49.9     21.10        86.2      87.6      61.8       4       8     104     156    1011    0.00
    08/19/2017 15:20      30    50.1     21.10        85.6      87.6      61.8       5       9     110     127    1011    0.00
    08/19/2017 15:30      31    50.1     21.10        85.2      87.6      61.8       4       8      97      98    1011    0.00
    08/19/2017 15:40      29    50.0     21.10        85.5      87.6      61.8       4       9     113      54    1010    0.00
    08/19/2017 15:50      30    49.9     21.10        84.7      87.6      61.8       4       9     107     118    1010    0.00
    08/19/2017 16:00      31    49.8     21.10        84.6      87.6      61.8       4       9     128     128    1010    0.00
    08/19/2017 16:10      30    49.6     21.10        84.6      87.6      61.8       4      10     103      87    1010    0.00
    08/19/2017 16:20      30    49.4     21.10        84.1      87.6      61.8       5       9      89      80    1010    0.00
    08/19/2017 16:30      31    49.7     21.10        84.0      87.6      61.8       4       8     127     121    1010    0.00
    08/19/2017 16:40      32    49.8     21.10        83.6      87.6      61.8       4      10     100      80    1010    0.00
    08/19/2017 16:50      34    50.9     21.10        82.6      87.6      61.8       4       9      92      74    1010    0.00
    08/19/2017 17:00      35    51.3     21.10        82.3      87.6      61.8       5       9      94      80    1010    0.00
    08/19/2017 17:10      35    51.3     21.10        82.0      87.6      61.8       3       7     140     179    1010    0.00
    08/19/2017 17:20      35    51.1     21.10        81.8      87.6      61.8       4       8     141     133    1010    0.00
    08/19/2017 17:30      36    50.8     21.10        80.7      87.6      61.8       5       9      85      80    1010    0.00
    08/19/2017 17:40      37    51.3     21.10        79.5      87.6      61.8       5       9      81      88    1010    0.00
    08/19/2017 17:50      40    51.5     21.10        79.0      87.6      61.8       5       9      85      78    1010    0.00
    08/19/2017 18:00      43    53.0     21.10        78.1      87.6      61.8       5       9      77      91    1010    0.00
    08/19/2017 18:10      44    53.3     21.10        77.3      87.6      61.8       5       9      77      62    1011    0.00
    08/19/2017 18:20      45    53.3     21.10        76.2      87.6      61.8       4       8      86      94    1011    0.00
    08/19/2017 18:30      48    53.6     21.10        75.5      87.6      61.8       4       8      87      93    1011    0.00
    08/19/2017 18:40      50    54.1     21.10        74.5      87.6      61.8       4       7      88     100    1011    0.00
    08/19/2017 18:50      50    54.2     21.10        74.0      87.6      61.8       2       5      92      85    1011    0.00
    08/19/2017 19:00      51    54.1     21.10        73.5      87.6      61.8       4       8      85      70    1011    0.00
    08/19/2017 19:10      53    53.9     21.10        72.7      87.6      61.8       4       8      71      81    1011    0.00
    08/19/2017 19:20      53    54.3     21.10        72.3      87.6      61.8       3       7      61      46    1011    0.00
    08/19/2017 19:30      55    54.3     21.10        71.8      87.6      61.8       4       6      58      53    1011    0.00
    08/19/2017 19:40      57    54.8     21.10        71.3      87.6      61.8       4       7      58      49    1012    0.00
    08/19/2017 19:50      58    55.2     21.10        70.8      87.6      61.8       4       7      63      95    1012    0.00
    08/19/2017 20:00      60    55.5     21.10        70.4      87.6      61.8       4       8      81      69    1012    0.00
    08/19/2017 20:10      62    55.8     21.10        69.8      87.6      61.8       5       9      84      63    1012    0.00
    08/19/2017 20:20      65    56.2     21.10        69.1      87.6      61.8       3       8      91      72    1012    0.00
    08/19/2017 20:30      66    56.5     21.10        68.5      87.6      61.8       4       7      84      75    1012    0.00
    08/19/2017 20:40      67    56.5     21.10        68.0      87.6      61.8       4       7      76      56    1012    0.00
    08/19/2017 20:50      68    56.3     21.10        67.6      87.6      61.8       4       7      68      70    1012    0.00
    08/19/2017 21:00      69    56.4     21.10        67.2      87.6      61.8       4       7      69      49    1012    0.00
    08/19/2017 21:10      69    56.5     21.10        66.9      87.6      61.8       4       7      78      70    1013    0.00
    08/19/2017 21:20      70    56.5     21.10        66.8      87.6      61.8       3       6      70      50    1013    0.00
    08/19/2017 21:30      70    56.3     21.10        66.5      87.6      61.8       3       6      53      33    1013    0.00
    08/19/2017 21:40      69    56.0     21.10        66.3      87.6      61.8       3       5      86     100    1013    0.00
    08/19/2017 21:50      70    55.9     21.10        66.0      87.6      61.8       3       5      79      80    1013    0.00
    08/19/2017 22:00      71    56.1     21.10        65.8      87.6      61.8       2       4      81      84    1013    0.00
    08/19/2017 22:10      72    56.3     21.10        65.8      87.6      61.8       2       4      71      67    1013    0.00
    08/19/2017 22:20      72    56.5     21.10        65.7      87.6      61.8       2       4      82      77    1013    0.00
    08/19/2017 22:30      73    56.6     21.10        65.7      87.6      61.8       2       4      80      79    1013    0.00
    08/19/2017 22:40      73    56.7     21.10        65.5      87.6      61.8       2       4      80      83    1013    0.00
    08/19/2017 22:50      73    56.5     21.10        65.3      87.6      61.8       3       4      88      61    1013    0.00
    08/19/2017 23:00      74    56.3     21.10        65.0      87.6      61.8       3       5      80     100    1013    0.00
    08/19/2017 23:10      75    56.3     21.10        64.8      87.6      61.8       3       5      70      62    1013    0.00
    08/19/2017 23:20      75    56.4     21.10        64.5      87.6      61.8       3       6      67      82    1013    0.00
    08/19/2017 23:30      76    56.3     21.10        64.2      87.6      61.8       4       7      77      77    1013    0.00
    08/19/2017 23:40      77    56.4     21.10        64.0      87.6      61.8       4       6      74      76    1013    0.00
    08/19/2017 23:50      78    56.6     21.10        63.8      87.6      61.8       3       5      75      92    1013    0.00
    08/20/2017 00:00      78    56.6     21.10        63.6      87.6      61.8       3       5      79      77    1013    0.00
    08/20/2017 00:10      78    56.5     21.10        63.4      63.6      63.2       2       4      83     114    1013    0.00
    08/20/2017 00:20      79    56.5     21.10        63.3      63.6      63.0       2       4      82     100    1013    0.00
    08/20/2017 00:30      80    56.6     21.10        63.1      63.6      62.9       3       5      76      89    1013    0.00
    08/20/2017 00:40      80    56.8     21.10        63.1      63.6      62.9       3       5      73      74    1013    0.00
    08/20/2017 00:50      81    56.8     21.10        62.9      63.6      62.7       2       4      69      80    1013    0.00
    08/20/2017 01:00      81    56.8     21.10        62.7      63.6      62.5       2       4      76      72    1013    0.00
    08/20/2017 01:10      81    56.9     21.10        62.7      63.6      62.5       2       5      67      82    1013    0.00
    08/20/2017 01:20      81    56.9     21.10        62.7      63.6      62.5       3       6      55      58    1013    0.00
    08/20/2017 01:30      82    56.9     21.10        62.6      63.6      62.4       3       6      68      86    1012    0.00
    08/20/2017 01:40      81    57.0     21.10        62.7      63.6      62.4       2       4      72      62    1012    0.00
    08/20/2017 01:50      81    56.9     21.10        62.8      63.6      62.4       3       5      83      92    1012    0.00
    08/20/2017 02:00      82    56.7     21.10        62.5      63.6      62.2       2       4      86      60    1012    0.00
    08/20/2017 02:10      82    56.7     21.10        62.3      63.6      62.1       3       6      85      63    1012    0.00
    08/20/2017 02:20      82    56.8     21.10        62.2      63.6      62.0       2       4     138     164    1012    0.00
    08/20/2017 02:30      82    57.0     21.10        62.5      63.6      62.0       1       3     133     132    1012    0.00
    08/20/2017 02:40      81    57.0     21.10        62.7      63.6      62.0       2       4     139     133    1012    0.00
    08/20/2017 02:50      82    56.8     21.10        62.6      63.6      62.0       3       5     156     155    1012    0.00
    08/20/2017 03:00      82    56.9     21.10        62.5      63.6      62.0       2       4     144     140    1012    0.00
    08/20/2017 03:10      81    57.0     21.10        62.7      63.6      62.0       2       5     118      92    1012    0.00
    08/20/2017 03:20      81    57.0     21.10        62.9      63.6      62.0       1       4     130     148    1012    0.00
    08/20/2017 03:30      81    56.9     21.10        62.9      63.6      62.0       3       6     151     160    1012    0.00
    08/20/2017 03:40      81    56.9     21.10        62.9      63.6      62.0       2       4     143     129    1012    0.00
    08/20/2017 03:50      80    56.8     21.10        62.9      63.6      62.0       1       3     179     182    1012    0.00
    08/20/2017 04:00      81    56.7     21.10        62.8      63.6      62.0       1       3     196     174    1012    0.00
    08/20/2017 04:10      80    56.9     21.10        63.0      63.6      62.0       2       4     150     131    1012    0.00
    08/20/2017 04:20      79    56.9     21.10        63.3      63.6      62.0       2       4     120      68    1012    0.00
    08/20/2017 04:30      78    56.8     21.10        63.4      63.7      62.0       2       5      87      55    1012    0.00
    08/20/2017 04:40      79    56.6     21.10        63.3      63.7      62.0       0       2     276     259    1012    0.00
    08/20/2017 04:50      79    56.6     21.10        63.2      63.7      62.0       0       1     186     153    1012    0.00
    08/20/2017 05:00      79    56.6     21.10        63.2      63.7      62.0       1       5     159     187    1012    0.00
    08/20/2017 05:10      78    56.6     21.10        63.4      63.7      62.0       2       4     120      77    1012    0.00
    08/20/2017 05:20      77    56.6     21.10        63.6      63.8      62.0       2       4     123      46    1012    0.00
    08/20/2017 05:30      78    56.4     21.10        63.5      63.8      62.0       2       4      55      31    1012    0.00
    08/20/2017 05:40      77    56.3     21.10        63.6      63.8      62.0       2       4      95      84    1013    0.00
    08/20/2017 05:50      77    56.2     21.10        63.5      63.8      62.0       2       4     118      86    1013    0.00
    08/20/2017 06:00      76    56.2     21.10        63.6      63.8      62.0       2       4     139     154    1013    0.00
    08/20/2017 06:10      76    56.0     21.10        63.7      63.9      62.0       2       3     127      82    1013    0.00
    08/20/2017 06:20      75    55.7     21.10        63.7      64.0      62.0       2       4     159     113    1013    0.00
    08/20/2017 06:30      75    55.9     21.10        63.8      64.1      62.0       2       5     161     136    1013    0.00
    08/20/2017 06:40      74    56.0     21.10        64.2      64.5      62.0       2       4     126     132    1013    0.00
    08/20/2017 06:50      73    56.0     21.10        64.4      64.7      62.0       2       3      88      73    1013    0.00
    08/20/2017 07:00      73    56.1     21.10        64.9      65.3      62.0       2       4     146     174    1013    0.00
    08/20/2017 07:10      73    56.1     21.10        64.9      65.3      62.0       2       4     179     170    1013    0.00
    08/20/2017 07:20      71    56.3     21.10        65.5      65.9      62.0       1       3     206     174    1013    0.00
    08/20/2017 07:30      69    56.2     21.10        66.3      66.8      62.0       0       3      63      38    1013    0.00
    08/20/2017 07:40      69    56.3     21.10        66.7      67.1      62.0       2       4     160     173    1013    0.00
    08/20/2017 07:50      68    56.5     21.10        67.3      67.8      62.0       3       5     167     180    1013    0.00
    08/20/2017 08:00      66    56.3     21.10        67.4      67.8      62.0       2       5     128      81    1013    0.00
    08/20/2017 08:10      67    56.2     21.10        67.5      67.8      62.0       2       6     118     167    1013    0.00
    08/20/2017 08:20      67    56.3     21.10        67.7      68.2      62.0       2       5     131      95    1013    0.00
    08/20/2017 08:30      65    56.6     21.10        68.4      69.4      62.0       3       6     171     180    1013    0.00
    08/20/2017 08:40      63    56.4     21.10        69.5      70.1      62.0       3       5     178     137    1013    0.00
    08/20/2017 08:50      64    56.9     21.10        69.5      70.9      62.0       3       6     180     139    1013    0.00
    08/20/2017 09:00      60    57.4     21.10        71.5      72.4      62.0       4       8     158     179    1013    0.00
    08/20/2017 09:10      60    56.8     21.10        71.7      72.4      62.0       3       7     141     158    1013    0.00
    08/20/2017 09:20      64    56.5     21.10        70.2      72.4      62.0       3       8     192     183    1013    0.00
    08/20/2017 09:30      62    57.0     21.10        70.3      72.4      62.0       4       7     172     155    1013    0.00
    08/20/2017 09:40      59    57.4     21.10        71.2      72.5      62.0       3       8     175     156    1013    0.00
    08/20/2017 09:50      61    57.2     21.10        71.3      72.7      62.0       5       9     168     174    1013    0.00
    08/20/2017 10:00      58    57.0     21.10        71.5      72.7      62.0       2       7     201     159    1013    0.00
    08/20/2017 10:10      60    57.2     21.10        72.7      73.8      62.0       4       8     190     185    1013    0.00
    08/20/2017 10:20      55    57.1     21.10        74.2      74.8      62.0       3       7     135     154    1013    0.00
    08/20/2017 10:30      54    56.4     21.10        74.1      74.8      62.0       3       6     110      71    1013    0.00
    08/20/2017 10:40      52    56.1     21.10        74.5      75.1      62.0       2       6     124     110    1013    0.00
    08/20/2017 10:50      50    55.7     21.10        75.4      75.9      62.0       3       7     104     103    1013    0.00
    08/20/2017 11:00      51    56.0     21.10        75.6      76.0      62.0       3       7     158      90    1013    0.00
    08/20/2017 11:10      50    55.9     21.10        75.5      76.1      62.0       2       5     239      47    1013    0.00
    08/20/2017 11:20      47    56.6     21.10        76.8      77.5      62.0       3       9     175     166    1012    0.00
    08/20/2017 11:30      45    56.1     21.10        78.0      78.7      62.0       3       5     164     147    1012    0.00
    08/20/2017 11:40      45    55.7     21.10        78.5      79.3      62.0       3       7     152     153    1012    0.00
    08/20/2017 11:50      46    56.0     21.10        79.0      79.4      62.0       3       9     195     178    1012    0.00
    08/20/2017 12:00      44    55.5     21.10        79.0      80.1      62.0       4       9     180     195    1012    0.00
    08/20/2017 12:10      45    54.8     21.10        79.0      80.1      62.0       4       9     155     144    1012    0.00
    08/20/2017 12:20      42    55.1     21.10        80.2      81.4      62.0       2       6     197     163    1012    0.00
    08/20/2017 12:30      37    54.9     21.10        81.7      82.0      62.0       4       9     154     134    1012    0.00
    08/20/2017 12:40      35    52.7     21.10        81.6      82.5      62.0       3       8     177     172    1012    0.00
    08/20/2017 12:50      33    51.4     21.10        82.8      84.0      62.0       3       9     122     157    1011    0.00
    08/20/2017 13:00      32    51.2     21.10        83.4      84.0      62.0       4       9     137     148    1011    0.00
    08/20/2017 13:10      31    50.7     21.10        84.0      84.6      62.0       3       6     130     163    1011    0.00
    08/20/2017 13:20      30    50.0     21.10        84.4      84.8      62.0       3       8     123     135    1011    0.00
    08/20/2017 13:30      26    48.2     21.10        84.9      85.7      62.0       4       8     143     166    1011    0.00
    08/20/2017 13:40      28    48.0     21.10        84.6      85.7      62.0       4       8     164     166    1011    0.00
    08/20/2017 13:50      25    47.6     21.10        85.9      86.4      62.0       5      13     136     155    1011    0.00
    08/20/2017 14:00      26    47.5     21.10        85.5      86.4      62.0       4       8     171      76    1010    0.00
    08/20/2017 14:10      29    48.5     21.10        86.0      86.8      62.0       4      10     126     165    1010    0.00
    08/20/2017 14:20      28    49.5     21.10        86.4      87.1      62.0       4       9     135      89    1010    0.00
    08/20/2017 14:30      31    50.0     21.10        85.7      87.1      62.0       5      11     112     116    1010    0.00
    08/20/2017 14:40      31    51.2     21.10        84.8      87.1      62.0       5      12     118     140    1010    0.00
    08/20/2017 14:50      31    51.3     21.10        85.4      87.1      62.0       5      11     126     163    1010    0.00
    08/20/2017 15:00      32    51.6     21.10        85.4      87.1      62.0       5       9     119      97    1010    0.00
    08/20/2017 15:10      33    52.4     21.10        84.6      87.1      62.0       5      10     140     149    1010    0.00
    08/20/2017 15:20      34    52.4     21.10        84.2      87.1      62.0       5      11     116     139    1010    0.00
    08/20/2017 15:30      34    52.4     21.10        83.8      87.1      62.0       5      10     131     126    1010    0.00
    08/20/2017 15:40      35    53.0     21.10        84.0      87.1      62.0       5      11     133     157    1010    0.00
    08/20/2017 15:50      35    53.3     21.10        84.1      87.1      62.0       5      11     142     139    1010    0.00
    08/20/2017 16:00      35    53.2     21.10        83.3      87.1      62.0       6      10     139     154    1010    0.00
    08/20/2017 16:10      36    52.4     21.10        83.4      87.1      62.0       5       9     132     161    1010    0.00
    08/20/2017 16:20      36    53.6     21.10        83.5      87.1      62.0       4      11     111      78    1010    0.00
    08/20/2017 16:30      39    54.0     21.10        82.2      87.1      62.0       5      10     112      95    1010    0.00
    08/20/2017 16:40      39    54.4     21.10        81.8      87.1      62.0       4      13     124      96    1010    0.00
    08/20/2017 16:50      42    54.5     21.10        81.0      87.1      62.0       5      12     120     137    1010    0.00
    08/20/2017 17:00      43    55.0     21.10        79.8      87.1      62.0       4       9     104      79    1010    0.00
    08/20/2017 17:10      44    55.0     21.10        78.7      87.1      62.0       5      13     111      81    1010    0.00
    08/20/2017 17:20      47    54.8     21.10        77.4      87.1      62.0       5      11     106      89    1010    0.00
    08/20/2017 17:30      48    54.9     21.10        76.7      87.1      62.0       4      10     116     127    1010    0.00
    08/20/2017 17:40      49    54.7     21.10        75.7      87.1      62.0       4       9     106     103    1010    0.00
    08/20/2017 17:50      51    54.9     21.10        74.8      87.1      62.0       5       9      90      63    1010    0.00
    08/20/2017 18:00      53    55.1     21.10        73.7      87.1      62.0       4       9      89     115    1010    0.00
    08/20/2017 18:10      54    55.3     21.10        73.1      87.1      62.0       6      10      73      80    1011    0.00
    08/20/2017 18:20      56    55.2     21.10        72.3      87.1      62.0       4       8      71      65    1011    0.00
    08/20/2017 18:30      58    55.7     21.10        71.7      87.1      62.0       5       8      68      67    1011    0.00
    08/20/2017 18:40      59    55.9     21.10        71.1      87.1      62.0       5       8      86      85    1011    0.00
    08/20/2017 18:50      60    56.1     21.10        70.7      87.1      62.0       5       8      90      58    1011    0.00
    08/20/2017 19:00      62    56.1     21.10        70.2      87.1      62.0       4      10      90      70    1011    0.00
    08/20/2017 19:10      63    56.4     21.10        69.7      87.1      62.0       3       9      83      73    1012    0.00
    08/20/2017 19:20      64    56.5     21.10        69.3      87.1      62.0       3       6      81      73    1012    0.00
    08/20/2017 19:30      65    56.5     21.10        69.1      87.1      62.0       2       4      90      74    1012    0.00
    08/20/2017 19:40      65    56.6     21.10        69.0      87.1      62.0       2       5     114      88    1012    0.00
    08/20/2017 19:50      66    56.6     21.10        68.8      87.1      62.0       3       7      89      92    1012    0.00
    08/20/2017 20:00      66    56.6     21.10        68.4      87.1      62.0       2       5     101      86    1012    0.00
    08/20/2017 20:10      68    56.5     21.10        67.9      87.1      62.0       2       4     115     193    1012    0.00
    08/20/2017 20:20      69    56.6     21.10        67.4      87.1      62.0       3       6      83      69    1012    0.00
    08/20/2017 20:30      70    56.6     21.10        67.0      87.1      62.0       5       8      78      80    1013    0.00
    08/20/2017 20:40      71    56.7     21.10        66.6      87.1      62.0       4       8      74      77    1013    0.00
    08/20/2017 20:50      71    56.8     21.10        66.4      87.1      62.0       4       8      69      55    1013    0.00
    08/20/2017 21:00      71    56.8     21.10        66.3      87.1      62.0       4       7      75      79    1013    0.00
    08/20/2017 21:10      72    56.7     21.10        66.1      87.1      62.0       3       6      77      63    1013    0.00
    08/20/2017 21:20      72    56.7     21.10        65.9      87.1      62.0       3       7      89      72    1013    0.00
    08/20/2017 21:30      73    56.7     21.10        65.7      87.1      62.0       2       6      95      85    1013    0.00
    08/20/2017 21:40      75    56.7     21.10        65.3      87.1      62.0       4       8      82      74    1013    0.00
    08/20/2017 21:50      75    56.7     21.10        64.8      87.1      62.0       3       6      86      79    1013    0.00
    08/20/2017 22:00      75    56.7     21.10        64.7      87.1      62.0       2       4     114     139    1013    0.00
    08/20/2017 22:10      76    56.5     21.10        64.3      87.1      62.0       2       5      95      94    1013    0.00
    08/20/2017 22:20      77    56.5     21.10        64.0      87.1      62.0       2       4     118      88    1013    0.00
    08/20/2017 22:30      78    56.5     21.10        63.7      87.1      62.0       2       4      79      70    1014    0.00
    08/20/2017 22:40      78    56.5     21.10        63.5      87.1      62.0       2       4      93      65    1014    0.00
    08/20/2017 22:50      79    56.6     21.10        63.4      87.1      62.0       3       6      79      79    1014    0.00
    08/20/2017 23:00      79    56.6     21.10        63.3      87.1      62.0       2       5      66      66    1014    0.00
    08/20/2017 23:10      79    56.7     21.10        63.3      87.1      62.0       3       5      75      90    1014    0.00
    08/20/2017 23:20      79    57.0     21.10        63.5      87.1      62.0       3       5      87      97    1014    0.00
    08/20/2017 23:30      79    57.1     21.10        63.7      87.1      62.0       3       5      63      63    1014    0.00
    08/20/2017 23:40      79    57.1     21.10        63.8      87.1      62.0       3       6      64      63    1014    0.00
    08/20/2017 23:50      78    57.1     21.10        63.9      87.1      62.0       3       5      74      78    1014    0.00
    08/21/2017 00:00      78    57.1     21.10        64.1      87.1      62.0       2       5      98      90    1013    0.00
    08/21/2017 00:10      78    57.1     21.10        64.1      64.3      64.0       2       5     116      60    1014    0.00
    08/21/2017 00:20      78    57.0     21.10        64.1      64.4      63.6       3       5      92     122    1013    0.00
    08/21/2017 00:30      79    57.0     21.10        63.8      64.4      63.5       2       5     127      88    1014    0.00
    08/21/2017 00:40      78    57.2     21.10        64.0      64.4      63.5       2       5     119     165    1014    0.00
    08/21/2017 00:50      78    57.0     21.10        64.0      64.4      63.5       1       8     111     142    1014    0.00
    08/21/2017 01:00      78    57.1     21.10        64.1      64.4      63.5       2       5      31      45    1014    0.00
    08/21/2017 01:10      78    57.1     21.10        64.0      64.4      63.5       2       4     116      62    1014    0.00
    08/21/2017 01:20      78    57.1     21.10        64.1      64.4      63.5       1       3      68      61    1014    0.00
    08/21/2017 01:30      78    57.0     21.10        64.2      64.4      63.5       1       4     145      88    1014    0.00
    08/21/2017 01:40      77    57.0     21.10        64.2      64.4      63.5       2       4      58      36    1014    0.00
    08/21/2017 01:50      77    57.0     21.10        64.3      64.5      63.5       2       4     104      93    1014    0.00
    08/21/2017 02:00      77    56.9     21.10        64.3      64.5      63.5       3       5      78      87    1014    0.00
    08/21/2017 02:10      77    56.7     21.10        64.0      64.5      63.5       3       5      22      44    1014    0.00
    08/21/2017 02:20      77    56.8     21.10        64.0      64.5      63.5       2       3      38      37    1014    0.00
    08/21/2017 02:30      77    56.7     21.10        64.0      64.5      63.5       2       3       9     345    1014    0.00
    08/21/2017 02:40      77    56.7     21.10        64.2      64.5      63.5       2       4      18      62    1014    0.00
    08/21/2017 02:50      76    56.8     21.10        64.3      64.5      63.5       1       4      70      53    1013    0.00
    08/21/2017 03:00      76    56.8     21.10        64.3      64.5      63.5       1       2      50      36    1013    0.00
    08/21/2017 03:10      76    56.7     21.10        64.3      64.5      63.5       0       2     322     326    1013    0.00
    08/21/2017 03:20      77    56.8     21.10        64.3      64.5      63.5       0       3     236     169    1013    0.00
    08/21/2017 03:30      76    56.9     21.10        64.4      64.6      63.5       2       4      85      60    1013    0.00
    08/21/2017 03:40      76    56.7     21.10        64.4      64.7      63.5       3       5      39      40    1013    0.00
    08/21/2017 03:50      76    56.5     21.10        64.1      64.7      63.5       2       5       4      40    1013    0.00
    08/21/2017 04:00      77    56.5     21.10        63.9      64.7      63.5       0       2     165     170    1013    0.00
    08/21/2017 04:10      76    56.6     21.10        64.1      64.7      63.5       2       3      87      91    1013    0.00
    08/21/2017 04:20      76    56.5     21.10        64.2      64.7      63.5       2       3      71      25    1013    0.00
    08/21/2017 04:30      76    56.5     21.10        64.3      64.7      63.5       2       4      52      61    1013    0.00
    08/21/2017 04:40      75    56.5     21.10        64.3      64.7      63.5       2       3      55      78    1014    0.00
    08/21/2017 04:50      76    56.4     21.10        64.3      64.7      63.5       3       5      78      64    1014    0.00
    08/21/2017 05:00      75    56.5     21.10        64.4      64.7      63.5       2       4      76      94    1014    0.00
    08/21/2017 05:10      75    56.4     21.10        64.4      64.7      63.5       2       3      56      58    1014    0.00
    08/21/2017 05:20      75    56.3     21.10        64.3      64.7      63.5       2       5     153     182    1014    0.00
    08/21/2017 05:30      76    56.4     21.10        64.1      64.7      63.5       1       3     194     209    1014    0.00
    08/21/2017 05:40      75    56.5     21.10        64.3      64.7      63.5       0       1     275     261    1014    0.00
    08/21/2017 05:50      75    56.5     21.10        64.6      64.8      63.5       0       3     212     200    1014    0.00
    08/21/2017 06:00      75    56.5     21.10        64.5      64.8      63.5       2       3     194     205    1014    0.00
    08/21/2017 06:10      75    56.6     21.10        64.5      64.8      63.5       2       4     183     144    1014    0.00
    08/21/2017 06:20      75    56.6     21.10        64.5      64.8      63.5       2       5     180     134    1014    0.00
    08/21/2017 06:30      75    56.7     21.10        64.6      64.8      63.5       2       3     173     197    1015    0.00
    08/21/2017 06:40      74    56.7     21.10        65.0      65.3      63.5       3       5      85      92    1015    0.00
    08/21/2017 06:50      73    56.5     21.10        65.2      65.4      63.5       2       4     129      78    1015    0.00
    08/21/2017 07:00      74    56.5     21.10        65.2      65.4      63.5       2       4     197      95    1015    0.00
    08/21/2017 07:10      73    56.5     21.10        65.5      65.8      63.5       2       6      57      69    1015    0.00
    08/21/2017 07:20      72    56.4     21.10        65.6      65.9      63.5       2       4     351      31    1015    0.00
    08/21/2017 07:30      71    56.5     21.10        66.0      66.4      63.5       2       6      52      36    1015    0.00
    08/21/2017 07:40      70    56.6     21.10        66.3      66.6      63.5       2       4      83     125    1015    0.00
    08/21/2017 07:50      70    56.7     21.10        66.6      67.3      63.5       3       6     155     165    1015    0.00
    08/21/2017 08:00      65    56.8     21.10        67.9      68.6      63.5       2       5     113     149    1015    0.00